createdAt,value
2017-11-22T00:01:52.243Z,91.00
2017-11-22T00:04:19.706Z,91.10
2017-11-22T00:06:47.273Z,91.30
2017-11-22T00:09:14.720Z,91.00
2017-11-22T00:11:42.177Z,91.40
2017-11-22T00:14:09.726Z,91.20
2017-11-22T00:16:37.291Z,91.20
2017-11-22T00:19:04.756Z,91.40
2017-11-22T00:21:32.263Z,91.60
2017-11-22T00:23:59.763Z,91.80
2017-11-22T00:26:27.320Z,91.70
2017-11-22T00:28:54.878Z,91.60
2017-11-22T00:31:22.360Z,91.60
2017-11-22T00:33:50.602Z,91.60
2017-11-22T00:36:18.162Z,91.60
2017-11-22T00:38:45.619Z,91.60
2017-11-22T00:41:13.075Z,91.70
2017-11-22T00:43:40.530Z,91.60
2017-11-22T00:46:08.094Z,91.70
2017-11-22T00:48:35.557Z,91.70
2017-11-22T00:51:03.003Z,91.60
2017-11-22T00:53:30.567Z,91.70
2017-11-22T00:55:58.083Z,91.60
2017-11-22T00:58:25.591Z,91.60
2017-11-22T01:00:53.135Z,91.60
2017-11-22T01:03:20.602Z,91.40
2017-11-22T01:05:48.151Z,91.60
2017-11-22T01:08:15.715Z,91.80
2017-11-22T01:10:43.171Z,91.90
2017-11-22T01:13:10.694Z,91.80
2017-11-22T01:15:38.248Z,91.90
2017-11-22T01:18:05.744Z,91.90
2017-11-22T01:20:33.198Z,91.90
2017-11-22T01:23:01.434Z,92.10
2017-11-22T01:25:28.938Z,92.00
2017-11-22T01:27:56.490Z,92.20
2017-11-22T01:30:23.945Z,92.20
2017-11-22T01:32:51.507Z,92.10
2017-11-22T01:35:19.057Z,92.10
2017-11-22T01:37:46.527Z,92.10
2017-11-22T01:40:14.146Z,92.00
2017-11-22T01:42:41.614Z,92.00
2017-11-22T01:45:09.079Z,92.10
2017-11-22T01:47:36.541Z,92.00
2017-11-22T01:50:04.105Z,92.00
2017-11-22T01:52:31.561Z,92.00
2017-11-22T01:54:59.043Z,92.10
2017-11-22T01:57:26.494Z,92.20
2017-11-22T01:59:55.457Z,92.20
2017-11-22T02:02:22.932Z,92.30
2017-11-22T02:04:50.487Z,92.60
2017-11-22T02:07:17.952Z,92.80
2017-11-22T02:09:45.397Z,92.90
2017-11-22T02:12:12.968Z,93.00
2017-11-22T02:14:41.253Z,93.10
2017-11-22T02:17:08.719Z,93.10
2017-11-22T02:19:36.969Z,93.60
2017-11-22T02:22:04.440Z,93.60
2017-11-22T02:24:32.667Z,94.50
2017-11-22T02:27:00.161Z,94.30
2017-11-22T02:29:27.714Z,94.20
2017-11-22T02:31:55.208Z,94.30
2017-11-22T02:34:22.670Z,94.50
2017-11-22T02:36:50.137Z,94.70
2017-11-22T02:39:17.707Z,94.80
2017-11-22T02:41:45.213Z,95.10
2017-11-22T02:44:12.757Z,94.80
2017-11-22T02:46:40.372Z,95.30
2017-11-22T02:49:07.848Z,95.30
2017-11-22T02:51:35.398Z,94.90
2017-11-22T02:54:02.863Z,95.00
2017-11-22T02:56:30.365Z,95.00
2017-11-22T02:58:57.827Z,95.50
2017-11-22T03:01:25.291Z,95.20
2017-11-22T03:03:53.608Z,95.10
2017-11-22T03:06:21.279Z,95.10
2017-11-22T03:08:49.357Z,95.20
2017-11-22T03:11:17.183Z,95.00
2017-11-22T03:13:44.761Z,94.90
2017-11-22T03:16:12.252Z,94.90
2017-11-22T03:18:39.875Z,95.00
2017-11-22T03:21:07.333Z,94.90
2017-11-22T03:23:34.803Z,94.80
2017-11-22T03:26:02.295Z,94.80
2017-11-22T03:28:30.528Z,94.60
2017-11-22T03:30:58.025Z,94.50
2017-11-22T03:33:25.586Z,94.60
2017-11-22T03:35:53.060Z,94.60
2017-11-22T03:38:21.306Z,94.30
2017-11-22T03:40:48.779Z,94.30
2017-11-22T03:43:16.233Z,94.50
2017-11-22T03:45:43.692Z,94.70
2017-11-22T03:48:15.957Z,94.80
2017-11-22T03:50:49.149Z,94.50
2017-11-22T03:53:22.393Z,95.40
2017-11-22T03:55:49.904Z,95.30
2017-11-22T03:58:17.362Z,95.00
2017-11-22T04:00:44.823Z,94.90
2017-11-22T04:03:13.078Z,94.80
2017-11-22T04:05:46.328Z,94.80
2017-11-22T04:08:17.749Z,95.00
2017-11-22T04:10:47.770Z,94.90
2017-11-22T04:13:16.018Z,94.90
2017-11-22T04:15:43.479Z,94.90
2017-11-22T04:18:10.947Z,94.70
2017-11-22T04:20:56.052Z,94.60
2017-11-22T04:23:23.559Z,94.60
2017-11-22T04:25:51.056Z,94.60
2017-11-22T04:28:18.523Z,94.80
2017-11-22T04:30:46.088Z,94.60
2017-11-22T04:33:13.594Z,94.50
2017-11-22T04:35:41.051Z,94.50
2017-11-22T04:38:09.289Z,94.10
2017-11-22T04:40:36.794Z,94.40
2017-11-22T04:43:06.844Z,94.20
2017-11-22T04:45:34.359Z,94.20
2017-11-22T04:48:01.915Z,94.10
2017-11-22T04:50:30.240Z,94.30
2017-11-22T04:52:57.728Z,94.20
2017-11-22T04:55:25.215Z,94.10
2017-11-22T04:57:53.458Z,94.00
2017-11-22T05:00:20.931Z,94.00
2017-11-22T05:02:48.446Z,94.00
2017-11-22T05:05:15.899Z,94.00
2017-11-22T05:07:43.407Z,93.80
2017-11-22T05:10:10.875Z,93.60
2017-11-22T05:12:39.139Z,94.00
2017-11-22T05:15:07.378Z,93.70
2017-11-22T05:17:34.883Z,93.70
2017-11-22T05:20:03.115Z,93.70
2017-11-22T05:22:30.571Z,93.70
2017-11-22T05:24:58.064Z,93.50
2017-11-22T05:27:25.574Z,93.40
2017-11-22T05:29:53.063Z,93.60
2017-11-22T05:32:20.631Z,93.80
2017-11-22T05:34:48.102Z,93.70
2017-11-22T05:37:15.566Z,93.60
2017-11-22T05:39:43.980Z,93.40
2017-11-22T05:42:11.512Z,93.30
2017-11-22T05:44:40.023Z,93.70
2017-11-22T05:47:07.543Z,93.70
2017-11-22T05:49:35.801Z,93.70
2017-11-22T05:52:03.517Z,93.70
2017-11-22T05:54:31.134Z,93.90
2017-11-22T05:56:58.595Z,94.10
2017-11-22T05:59:26.850Z,93.90
2017-11-22T06:01:54.317Z,93.80
2017-11-22T06:04:21.863Z,93.60
2017-11-22T06:06:49.417Z,93.40
2017-11-22T06:09:16.873Z,93.50
2017-11-22T06:11:44.334Z,93.60
2017-11-22T06:14:11.899Z,93.60
2017-11-22T06:16:39.654Z,93.30
2017-11-22T06:19:07.118Z,93.40
2017-11-22T06:21:34.664Z,93.50
2017-11-22T06:24:02.135Z,93.50
2017-11-22T06:26:29.695Z,93.50
2017-11-22T06:28:58.661Z,93.70
2017-11-22T06:31:26.114Z,93.70
2017-11-22T06:33:53.594Z,93.80
2017-11-22T06:36:21.050Z,93.70
2017-11-22T06:38:48.567Z,93.60
2017-11-22T06:41:16.018Z,93.90
2017-11-22T06:43:43.483Z,93.80
2017-11-22T06:46:10.948Z,93.40
2017-11-22T06:48:38.427Z,93.50
2017-11-22T06:51:05.999Z,93.60
2017-11-22T06:53:33.851Z,93.70
2017-11-22T06:56:01.310Z,93.70
2017-11-22T06:58:28.774Z,93.70
2017-11-22T07:00:56.243Z,93.90
2017-11-22T07:06:21.349Z,93.70
2017-11-22T07:08:48.822Z,94.00
2017-11-22T07:11:16.286Z,94.10
2017-11-22T07:13:44.553Z,93.90
2017-11-22T07:16:17.800Z,93.90
2017-11-22T07:18:45.280Z,94.20
2017-11-22T07:21:12.733Z,94.10
2017-11-22T07:23:40.189Z,94.00
2017-11-22T07:26:07.662Z,93.90
2017-11-22T07:28:35.214Z,93.80
2017-11-22T07:31:04.309Z,93.80
2017-11-22T07:33:31.765Z,94.10
2017-11-22T07:36:05.121Z,93.60
2017-11-22T07:38:32.623Z,93.80
2017-11-22T07:41:00.089Z,93.90
2017-11-22T07:43:27.559Z,94.00
2017-11-22T07:45:55.788Z,93.80
2017-11-22T07:48:23.250Z,93.80
2017-11-22T07:50:50.715Z,93.80
2017-11-22T07:53:18.286Z,93.90
2017-11-22T07:55:48.710Z,93.90
2017-11-22T07:58:16.261Z,93.60
2017-11-22T08:00:43.823Z,93.70
2017-11-22T08:03:11.683Z,93.50
2017-11-22T08:05:39.151Z,93.40
2017-11-22T08:08:06.764Z,93.40
2017-11-22T08:10:34.258Z,93.30
2017-11-22T08:13:01.827Z,93.00
2017-11-22T08:15:29.282Z,93.10
2017-11-22T08:17:56.763Z,93.00
2017-11-22T08:20:25.010Z,92.80
2017-11-22T08:22:52.562Z,92.70
2017-11-22T08:25:21.873Z,92.70
2017-11-22T08:27:49.430Z,92.50
2017-11-22T08:30:16.891Z,92.80
2017-11-22T08:32:44.402Z,92.50
2017-11-22T08:35:11.861Z,92.40
2017-11-22T08:37:39.317Z,92.70
2017-11-22T08:40:06.788Z,92.20
2017-11-22T08:42:37.014Z,92.20
2017-11-22T08:45:04.493Z,92.20
2017-11-22T08:47:31.966Z,91.80
2017-11-22T08:50:00.285Z,92.10
2017-11-22T08:52:27.784Z,92.10
2017-11-22T08:55:01.113Z,92.00
2017-11-22T08:57:35.118Z,92.00
2017-11-22T09:00:08.991Z,92.10
2017-11-22T09:02:38.992Z,92.00
2017-11-22T09:05:06.445Z,92.10
2017-11-22T09:07:33.932Z,92.00
2017-11-22T09:10:02.152Z,92.10
2017-11-22T09:12:35.385Z,92.10
2017-11-22T09:17:36.863Z,91.60
2017-11-22T09:20:06.127Z,91.80
2017-11-22T09:22:33.597Z,91.50
2017-11-22T09:25:02.992Z,91.40
2017-11-22T09:27:36.156Z,91.30
2017-11-22T09:30:18.270Z,91.60
2017-11-22T09:32:45.733Z,91.50
2017-11-22T09:35:16.042Z,91.20
2017-11-22T09:37:43.546Z,91.10
2017-11-22T09:40:11.093Z,91.30
2017-11-22T09:42:38.565Z,90.90
2017-11-22T09:45:06.795Z,91.10
2017-11-22T09:47:34.299Z,91.00
2017-11-22T09:50:01.754Z,91.00
2017-11-22T09:52:29.310Z,91.40
2017-11-22T09:54:56.866Z,91.20
2017-11-22T09:57:24.432Z,90.90
2017-11-22T09:59:51.986Z,91.10
2017-11-22T10:02:19.542Z,90.20
2017-11-22T10:04:47.780Z,90.10
2017-11-22T10:07:15.256Z,90.10
2017-11-22T10:09:42.710Z,90.60
2017-11-22T10:12:10.181Z,90.80
2017-11-22T10:14:37.643Z,91.00
2017-11-22T10:17:10.768Z,90.70
2017-11-22T10:22:45.060Z,89.90
2017-11-22T10:25:12.524Z,89.70
2017-11-22T10:27:42.952Z,89.90
2017-11-22T10:30:13.350Z,90.00
2017-11-22T10:32:46.544Z,89.60
2017-11-22T10:35:14.007Z,89.20
2017-11-22T10:37:41.479Z,90.20
2017-11-22T10:40:08.943Z,89.60
2017-11-22T10:42:36.504Z,89.80
2017-11-22T10:45:04.060Z,89.60
2017-11-22T10:47:31.636Z,88.40
2017-11-22T10:49:59.863Z,88.90
2017-11-22T10:52:27.342Z,88.90
2017-11-22T10:54:54.906Z,89.00
2017-11-22T10:57:22.464Z,89.50
2017-11-22T10:59:50.023Z,88.10
2017-11-22T11:02:18.266Z,88.80
2017-11-22T11:04:45.733Z,88.80
2017-11-22T11:07:13.237Z,88.40
2017-11-22T11:09:41.464Z,88.70
2017-11-22T11:12:08.926Z,88.60
2017-11-22T11:14:36.431Z,87.90
2017-11-22T11:17:04.665Z,88.30
2017-11-22T11:19:32.190Z,88.20
2017-11-22T11:21:59.686Z,88.10
2017-11-22T11:24:28.282Z,88.30
2017-11-22T11:26:55.940Z,88.40
2017-11-22T11:29:24.171Z,87.60
2017-11-22T11:31:51.662Z,87.50
2017-11-22T11:34:19.126Z,87.70
2017-11-22T11:36:46.611Z,87.70
2017-11-22T11:39:14.859Z,86.90
2017-11-22T11:41:42.322Z,86.90
2017-11-22T11:44:09.862Z,87.80
2017-11-22T11:46:37.323Z,87.00
2017-11-22T11:49:04.885Z,87.00
2017-11-22T11:51:32.342Z,86.80
2017-11-22T11:53:59.962Z,86.60
2017-11-22T11:56:27.463Z,87.00
2017-11-22T11:58:54.940Z,86.50
2017-11-22T12:01:23.192Z,87.00
2017-11-22T12:03:50.692Z,87.00
2017-11-22T12:06:18.149Z,86.80
2017-11-22T12:08:45.731Z,88.10
2017-11-22T12:11:13.222Z,86.60
2017-11-22T12:13:40.699Z,86.40
2017-11-22T12:16:08.955Z,86.10
2017-11-22T12:18:36.427Z,85.90
2017-11-22T12:21:05.795Z,86.80
2017-11-22T12:23:36.033Z,86.70
2017-11-22T12:26:03.501Z,87.10
2017-11-22T12:28:30.953Z,86.80
2017-11-22T12:30:58.429Z,86.60
2017-11-22T12:33:26.666Z,85.90
2017-11-22T12:35:54.152Z,85.90
2017-11-22T12:38:24.200Z,85.50
2017-11-22T12:40:51.673Z,85.30
2017-11-22T12:43:19.242Z,85.30
2017-11-22T12:45:46.721Z,85.60
2017-11-22T12:48:14.194Z,86.50
2017-11-22T12:50:42.519Z,87.20
2017-11-22T12:53:10.029Z,86.30
2017-11-22T12:55:38.275Z,84.40
2017-11-22T12:58:14.319Z,84.30
2017-11-22T13:00:41.814Z,84.70
2017-11-22T13:03:09.287Z,84.90
2017-11-22T13:05:37.538Z,85.20
2017-11-22T13:08:05.103Z,85.10
2017-11-22T13:10:33.485Z,84.60
2017-11-22T13:13:01.742Z,84.10
2017-11-22T13:15:29.279Z,83.90
2017-11-22T13:17:57.748Z,84.40
2017-11-22T13:20:26.342Z,84.20
2017-11-22T13:22:53.938Z,84.10
2017-11-22T13:25:22.181Z,84.60
2017-11-22T13:27:49.657Z,84.50
2017-11-22T13:30:17.135Z,84.70
2017-11-22T13:32:45.401Z,84.90
2017-11-22T13:35:12.869Z,84.90
2017-11-22T13:37:41.098Z,84.80
2017-11-22T13:40:08.571Z,84.60
2017-11-22T13:42:36.042Z,84.60
2017-11-22T13:45:08.419Z,84.60
2017-11-22T13:47:35.878Z,84.40
2017-11-22T13:50:04.150Z,84.50
2017-11-22T13:52:32.411Z,84.80
2017-11-22T13:54:59.974Z,84.60
2017-11-22T13:57:27.540Z,84.50
2017-11-22T13:59:55.032Z,84.20
2017-11-22T14:02:22.547Z,84.50
2017-11-22T14:04:50.021Z,84.50
2017-11-22T14:07:18.282Z,85.10
2017-11-22T14:09:45.851Z,84.50
2017-11-22T14:12:13.321Z,84.30
2017-11-22T14:14:41.561Z,84.10
2017-11-22T14:17:09.021Z,84.00
2017-11-22T14:19:36.488Z,83.80
2017-11-22T14:22:03.963Z,83.80
2017-11-22T14:24:32.197Z,83.10
2017-11-22T14:26:59.679Z,83.00
2017-11-22T14:29:27.239Z,83.40
2017-11-22T14:31:54.706Z,83.40
2017-11-22T14:34:22.255Z,83.60
2017-11-22T14:36:49.722Z,84.00
2017-11-22T14:39:17.966Z,84.10
2017-11-22T14:41:45.542Z,83.90
2017-11-22T14:44:14.542Z,84.10
2017-11-22T14:46:42.096Z,83.90
2017-11-22T14:49:09.657Z,84.40
2017-11-22T14:51:37.121Z,84.00
2017-11-22T14:54:05.394Z,84.40
2017-11-22T14:56:32.946Z,84.40
2017-11-22T14:59:00.457Z,83.70
2017-11-22T15:01:27.927Z,84.80
2017-11-22T15:03:55.399Z,83.90
2017-11-22T15:06:22.853Z,84.40
2017-11-22T15:08:50.434Z,84.50
2017-11-22T15:11:17.936Z,84.10
2017-11-22T15:13:45.438Z,84.70
2017-11-22T15:16:12.914Z,84.40
2017-11-22T15:18:40.468Z,84.90
2017-11-22T15:21:08.014Z,85.20
2017-11-22T15:23:35.503Z,84.70
2017-11-22T15:26:03.753Z,84.60
2017-11-22T15:28:31.323Z,84.60
2017-11-22T15:30:58.883Z,85.10
2017-11-22T15:33:26.483Z,85.00
2017-11-22T15:35:53.956Z,85.60
2017-11-22T15:38:21.422Z,84.90
2017-11-22T15:40:48.899Z,84.60
2017-11-22T15:43:16.367Z,84.90
2017-11-22T15:45:43.846Z,85.00
2017-11-22T15:48:12.075Z,84.90
2017-11-22T15:50:39.663Z,84.80
2017-11-22T15:53:07.132Z,84.90
2017-11-22T15:55:35.440Z,84.40
2017-11-22T15:58:02.930Z,84.40
2017-11-22T16:00:30.495Z,84.30
2017-11-22T16:02:58.054Z,83.50
2017-11-22T16:05:25.527Z,83.80
2017-11-22T16:07:53.130Z,83.70
2017-11-22T16:10:20.595Z,83.70
2017-11-22T16:12:48.078Z,83.90
2017-11-22T16:15:15.551Z,83.60
2017-11-22T16:17:43.005Z,83.70
2017-11-22T16:20:10.567Z,83.50
2017-11-22T16:22:38.124Z,83.40
2017-11-22T16:25:05.683Z,83.80
2017-11-22T16:27:33.243Z,83.20
2017-11-22T16:30:00.808Z,83.40
2017-11-22T16:32:28.269Z,84.40
2017-11-22T16:34:56.501Z,83.20
2017-11-22T16:37:23.981Z,83.20
2017-11-22T16:39:51.457Z,83.00
2017-11-22T16:42:19.697Z,82.50
2017-11-22T16:44:47.163Z,82.50
2017-11-22T16:47:14.731Z,82.60
2017-11-22T16:49:42.279Z,82.10
2017-11-22T16:52:09.749Z,82.30
2017-11-22T16:54:37.318Z,81.80
2017-11-22T16:57:05.555Z,82.90
2017-11-22T16:59:33.047Z,82.10
2017-11-22T17:02:00.603Z,81.70
2017-11-22T17:04:28.069Z,82.00
2017-11-22T17:06:56.336Z,81.20
2017-11-22T17:09:23.891Z,82.00
2017-11-22T17:11:51.390Z,81.40
2017-11-22T17:14:18.918Z,81.80
2017-11-22T17:16:47.175Z,82.40
2017-11-22T17:19:14.655Z,81.20
2017-11-22T17:21:42.972Z,81.20
2017-11-22T17:24:10.460Z,81.10
2017-11-22T17:26:38.694Z,81.00
2017-11-22T17:29:06.170Z,81.00
2017-11-22T17:31:33.664Z,81.10
2017-11-22T17:34:01.143Z,81.20
2017-11-22T17:36:29.386Z,81.60
2017-11-22T17:38:56.858Z,81.60
2017-11-22T17:41:25.139Z,81.00
2017-11-22T17:43:52.608Z,80.90
2017-11-22T17:46:20.138Z,81.00
2017-11-22T17:48:47.604Z,80.90
2017-11-22T17:51:15.847Z,80.90
2017-11-22T17:53:43.338Z,80.50
2017-11-22T17:56:10.946Z,81.00
2017-11-22T17:58:38.403Z,81.30
2017-11-22T18:01:05.872Z,81.40
2017-11-22T18:03:33.332Z,80.70
2017-11-22T18:06:00.819Z,80.70
2017-11-22T18:08:28.384Z,80.80
2017-11-22T18:10:55.853Z,81.00
2017-11-22T18:13:24.109Z,80.90
2017-11-22T18:15:51.599Z,80.90
2017-11-22T18:18:19.839Z,81.10
2017-11-22T18:20:47.324Z,81.10
2017-11-22T18:23:14.794Z,81.10
2017-11-22T18:25:42.257Z,81.00
2017-11-22T18:28:09.775Z,81.20
2017-11-22T18:30:37.245Z,81.20
2017-11-22T18:33:05.479Z,81.60
2017-11-22T18:35:32.951Z,81.50
2017-11-22T18:38:00.505Z,81.90
2017-11-22T18:40:27.978Z,81.80
2017-11-22T18:42:55.523Z,81.80
2017-11-22T18:45:23.009Z,81.90
2017-11-22T18:47:51.362Z,82.10
2017-11-22T18:50:18.855Z,81.90
2017-11-22T18:52:47.079Z,82.30
2017-11-22T18:55:14.721Z,82.30
2017-11-22T18:57:42.177Z,82.30
2017-11-22T19:00:09.634Z,82.40
2017-11-22T19:02:37.134Z,82.10
2017-11-22T19:05:05.390Z,82.00
2017-11-22T19:07:32.958Z,83.10
2017-11-22T19:10:00.437Z,83.30
2017-11-22T19:12:28.664Z,83.70
2017-11-22T19:14:56.127Z,83.70
2017-11-22T19:17:23.605Z,83.70
2017-11-22T19:19:51.062Z,83.60
2017-11-22T19:22:18.632Z,83.60
2017-11-22T19:24:46.081Z,83.70
2017-11-22T19:27:13.647Z,84.10
2017-11-22T19:29:41.101Z,83.90
2017-11-22T19:32:08.604Z,84.70
2017-11-22T19:34:36.101Z,83.70
2017-11-22T19:37:03.559Z,83.90
2017-11-22T19:39:31.030Z,84.10
2017-11-22T19:41:59.303Z,85.00
2017-11-22T19:44:26.860Z,84.20
2017-11-22T19:46:54.315Z,84.40
2017-11-22T19:49:21.778Z,84.50
2017-11-22T19:51:49.242Z,84.20
2017-11-22T19:54:17.508Z,84.40
2017-11-22T19:56:45.053Z,84.20
2017-11-22T19:59:12.515Z,84.30
2017-11-22T20:01:40.075Z,84.50
2017-11-22T20:04:07.536Z,85.20
2017-11-22T20:06:35.012Z,84.30
2017-11-22T20:09:03.235Z,84.60
2017-11-22T20:11:30.722Z,84.50
2017-11-22T20:13:58.284Z,84.80
2017-11-22T20:16:25.839Z,84.50
2017-11-22T20:18:53.299Z,84.60
2017-11-22T20:21:20.765Z,84.80
2017-11-22T20:23:49.018Z,84.60
2017-11-22T20:26:16.489Z,84.40
2017-11-22T20:28:43.953Z,84.50
2017-11-22T20:31:11.434Z,84.60
2017-11-22T20:33:38.894Z,84.90
2017-11-22T20:36:06.355Z,84.90
2017-11-22T20:38:33.924Z,84.80
2017-11-22T20:41:01.383Z,85.30
2017-11-22T20:43:28.873Z,85.50
2017-11-22T20:45:57.841Z,86.10
2017-11-22T20:48:25.315Z,86.10
2017-11-22T20:50:52.782Z,86.30
2017-11-22T20:53:20.348Z,86.30
2017-11-22T20:55:47.908Z,86.40
2017-11-22T20:58:15.464Z,86.40
2017-11-22T21:00:42.924Z,86.10
2017-11-22T21:03:10.491Z,85.80
2017-11-22T21:05:37.951Z,86.80
2017-11-22T21:08:06.169Z,87.00
2017-11-22T21:10:33.625Z,86.00
2017-11-22T21:13:01.100Z,86.70
2017-11-22T21:15:28.568Z,86.10
2017-11-22T21:17:56.025Z,86.30
2017-11-22T21:20:23.595Z,86.10
2017-11-22T21:22:51.160Z,85.90
2017-11-22T21:25:18.659Z,86.00
2017-11-22T21:27:46.133Z,86.10
2017-11-22T21:30:13.599Z,86.20
2017-11-22T21:32:41.082Z,86.20
2017-11-22T21:35:09.357Z,86.10
2017-11-22T21:37:36.809Z,86.10
2017-11-22T21:40:04.371Z,86.00
2017-11-22T21:42:31.934Z,86.10
2017-11-22T21:44:59.554Z,86.00
2017-11-22T21:47:27.051Z,86.20
2017-11-22T21:49:54.515Z,86.30
2017-11-22T21:52:21.980Z,86.20
2017-11-22T21:54:49.443Z,86.10
2017-11-22T21:57:17.686Z,86.20
2017-11-22T21:59:45.260Z,86.10
2017-11-22T22:02:13.522Z,85.90
2017-11-22T22:04:40.987Z,85.90
2017-11-22T22:07:08.542Z,85.70
2017-11-22T22:09:36.017Z,86.00
2017-11-22T22:12:03.473Z,85.90
2017-11-22T22:14:30.960Z,85.90
2017-11-22T22:16:58.475Z,86.10
2017-11-22T22:19:26.026Z,86.10
2017-11-22T22:21:53.488Z,86.90
2017-11-22T22:24:20.948Z,86.10
2017-11-22T22:26:48.414Z,86.30
2017-11-22T22:31:52.132Z,86.50
2017-11-22T22:34:19.688Z,86.40
2017-11-22T22:36:47.229Z,86.20
2017-11-22T22:39:14.690Z,86.10
2017-11-22T22:41:42.142Z,86.20
2017-11-22T22:44:09.718Z,86.20
2017-11-22T22:46:37.258Z,86.10
2017-11-22T22:49:04.734Z,86.10
2017-11-22T22:51:32.197Z,86.10
2017-11-22T22:53:59.674Z,86.50
2017-11-22T22:56:27.271Z,85.90
2017-11-22T22:58:54.745Z,85.90
2017-11-22T23:01:22.201Z,85.70
2017-11-22T23:03:49.780Z,85.80
2017-11-22T23:06:17.332Z,85.90
2017-11-22T23:08:44.783Z,86.00
2017-11-22T23:11:12.278Z,85.90
2017-11-22T23:13:40.522Z,85.80
2017-11-22T23:16:08.022Z,85.70
2017-11-22T23:18:35.539Z,85.90
2017-11-22T23:21:03.098Z,85.90
2017-11-22T23:23:32.100Z,86.10
2017-11-22T23:26:00.328Z,85.40
2017-11-22T23:28:27.820Z,86.00
2017-11-22T23:30:55.279Z,86.10
2017-11-22T23:33:23.504Z,86.10
2017-11-22T23:35:51.027Z,86.20
2017-11-22T23:38:19.241Z,86.40
2017-11-22T23:40:46.739Z,86.30
2017-11-22T23:43:14.199Z,86.10
2017-11-22T23:45:41.751Z,86.10
2017-11-22T23:48:09.327Z,86.10
2017-11-22T23:50:37.558Z,86.30
2017-11-22T23:53:05.042Z,86.10
2017-11-22T23:55:32.660Z,85.90
2017-11-22T23:58:00.170Z,86.10
